createdAt,value
2022-12-03T00:00:12.853Z,75.84
2022-12-03T00:03:00.944Z,75.31
2022-12-03T00:05:29.566Z,74.76
2022-12-03T00:08:03.605Z,75.53
2022-12-03T00:10:34.006Z,75.45
2022-12-03T00:13:00.902Z,75.50
2022-12-03T00:15:28.131Z,75.45
2022-12-03T00:17:55.046Z,75.35
2022-12-03T00:20:25.248Z,75.25
2022-12-03T00:22:52.885Z,75.78
2022-12-03T00:25:21.001Z,75.56
2022-12-03T00:27:48.868Z,76.03
2022-12-03T00:30:21.529Z,75.26
2022-12-03T00:32:50.727Z,75.99
2022-12-03T00:35:18.525Z,75.61
2022-12-03T00:37:48.492Z,75.62
2022-12-03T00:40:15.834Z,76.28
2022-12-03T00:42:42.782Z,75.81
2022-12-03T00:45:10.476Z,75.96
2022-12-03T00:47:37.288Z,75.65
2022-12-03T00:50:06.590Z,75.71
2022-12-03T00:52:33.907Z,75.36
2022-12-03T00:55:01.039Z,75.06
2022-12-03T00:57:27.882Z,75.93
2022-12-03T00:59:55.046Z,75.40
2022-12-03T01:02:21.925Z,75.47
2022-12-03T01:04:49.249Z,75.43
2022-12-03T01:07:16.650Z,76.20
2022-12-03T01:09:44.328Z,75.74
2022-12-03T01:12:12.095Z,75.29
2022-12-03T01:14:39.439Z,75.88
2022-12-03T01:17:07.038Z,75.90
2022-12-03T01:19:35.326Z,75.85
2022-12-03T01:22:02.623Z,75.51
2022-12-03T01:24:30.358Z,75.48
2022-12-03T01:26:57.698Z,75.76
2022-12-03T01:29:25.214Z,75.83
2022-12-03T01:32:11.256Z,75.92
2022-12-03T01:34:44.209Z,75.72
2022-12-03T01:37:34.605Z,75.62
2022-12-03T01:40:05.694Z,75.32
2022-12-03T01:42:42.556Z,75.46
2022-12-03T01:45:23.616Z,75.89
2022-12-03T01:47:51.406Z,75.22
2022-12-03T01:50:32.592Z,75.71
2022-12-03T01:53:03.751Z,76.11
2022-12-03T01:55:34.187Z,75.67
2022-12-03T01:58:05.118Z,76.28
2022-12-03T02:00:33.141Z,76.02
2022-12-03T02:03:04.006Z,76.40
2022-12-03T02:05:35.570Z,76.14
2022-12-03T02:08:35.758Z,76.67
2022-12-03T02:11:25.347Z,75.89
2022-12-03T02:14:02.765Z,75.76
2022-12-03T02:16:34.593Z,75.85
2022-12-03T02:19:02.251Z,75.53
2022-12-03T02:21:51.121Z,76.16
2022-12-03T02:24:38.971Z,76.06
2022-12-03T02:27:09.358Z,76.14
2022-12-03T02:29:38.273Z,76.78
2022-12-03T02:32:06.024Z,77.14
2022-12-03T02:34:46.054Z,76.39
2022-12-03T02:37:27.101Z,76.52
2022-12-03T02:40:03.251Z,76.74
2022-12-03T02:42:35.224Z,77.46
2022-12-03T02:45:19.310Z,77.01
2022-12-03T02:47:56.101Z,76.95
2022-12-03T02:50:32.238Z,77.29
2022-12-03T02:53:05.442Z,77.16
2022-12-03T02:55:38.834Z,77.49
2022-12-03T02:58:07.296Z,77.30
2022-12-03T03:00:36.267Z,77.54
2022-12-03T03:03:08.202Z,77.47
2022-12-03T03:05:40.837Z,77.46
2022-12-03T03:08:10.506Z,77.70
2022-12-03T03:10:41.455Z,77.44
2022-12-03T03:13:18.609Z,77.48
2022-12-03T03:15:46.514Z,77.48
2022-12-03T03:18:15.974Z,77.07
2022-12-03T03:20:44.928Z,77.41
2022-12-03T03:23:20.168Z,77.40
2022-12-03T03:25:59.110Z,77.16
2022-12-03T03:28:28.360Z,77.70
2022-12-03T03:30:56.053Z,76.75
2022-12-03T03:33:23.435Z,76.68
2022-12-03T03:35:50.635Z,77.23
2022-12-03T03:38:22.493Z,77.07
2022-12-03T03:40:56.458Z,77.19
2022-12-03T03:43:25.022Z,77.48
2022-12-03T03:45:54.526Z,77.18
2022-12-03T03:48:23.743Z,77.39
2022-12-03T03:51:04.000Z,77.64
2022-12-03T03:53:33.969Z,77.34
2022-12-03T03:56:06.582Z,77.65
2022-12-03T03:58:34.205Z,76.68
2022-12-03T04:01:01.985Z,77.37
2022-12-03T04:03:29.401Z,76.64
2022-12-03T04:05:56.694Z,76.76
2022-12-03T04:08:23.972Z,76.73
2022-12-03T04:11:09.879Z,76.92
2022-12-03T04:13:39.795Z,76.84
2022-12-03T04:16:09.277Z,77.67
2022-12-03T04:18:46.149Z,76.94
2022-12-03T04:21:37.666Z,77.00
2022-12-03T04:24:09.919Z,77.01
2022-12-03T04:26:56.979Z,77.34
2022-12-03T04:29:35.712Z,77.21
2022-12-03T04:32:24.074Z,76.97
2022-12-03T04:35:10.122Z,77.13
2022-12-03T04:37:40.299Z,76.20
2022-12-03T04:40:29.510Z,76.67
2022-12-03T04:42:59.401Z,76.73
2022-12-03T04:45:27.802Z,76.98
2022-12-03T04:47:55.675Z,77.48
2022-12-03T04:50:23.074Z,76.77
2022-12-03T04:52:50.738Z,77.09
2022-12-03T04:55:18.362Z,76.77
2022-12-03T04:57:45.748Z,76.90
2022-12-03T05:00:14.223Z,77.10
2022-12-03T05:02:41.150Z,76.71
2022-12-03T05:05:09.271Z,77.29
2022-12-03T05:07:36.675Z,76.89
2022-12-03T05:10:06.248Z,77.22
2022-12-03T05:12:33.174Z,77.28
2022-12-03T05:15:00.491Z,77.06
2022-12-03T05:17:27.667Z,77.03
2022-12-03T05:20:13.797Z,77.01
2022-12-03T05:22:42.558Z,77.34
2022-12-03T05:25:13.799Z,77.23
2022-12-03T05:27:40.697Z,76.68
2022-12-03T05:30:08.932Z,77.03
2022-12-03T05:32:35.805Z,77.14
2022-12-03T05:35:03.004Z,77.16
2022-12-03T05:37:30.321Z,76.81
2022-12-03T05:39:57.871Z,76.84
2022-12-03T05:42:47.052Z,77.05
2022-12-03T05:45:18.647Z,76.82
2022-12-03T05:47:45.436Z,76.76
2022-12-03T05:50:12.676Z,76.94
2022-12-03T05:52:43.515Z,77.05
2022-12-03T05:55:11.959Z,77.06
2022-12-03T05:57:39.515Z,76.79
2022-12-03T06:00:18.425Z,76.75
2022-12-03T06:02:45.874Z,76.42
2022-12-03T06:05:15.751Z,76.58
2022-12-03T06:07:48.752Z,76.28
2022-12-03T06:10:29.881Z,76.36
2022-12-03T06:12:58.484Z,77.23
2022-12-03T06:15:26.029Z,76.81
2022-12-03T06:17:53.630Z,76.36
2022-12-03T06:20:21.500Z,76.03
2022-12-03T06:22:48.765Z,76.88
2022-12-03T06:25:17.121Z,76.99
2022-12-03T06:27:44.601Z,76.77
2022-12-03T06:30:13.867Z,76.69
2022-12-03T06:32:41.104Z,76.67
2022-12-03T06:35:08.974Z,77.46
2022-12-03T06:37:35.891Z,76.69
2022-12-03T06:40:03.302Z,76.89
2022-12-03T06:45:48.077Z,76.47
2022-12-03T06:48:15.625Z,76.63
2022-12-03T06:50:42.514Z,76.50
2022-12-03T06:53:09.622Z,76.14
2022-12-03T06:55:36.419Z,76.42
2022-12-03T06:58:04.332Z,76.16
2022-12-03T07:00:31.450Z,76.65
2022-12-03T07:02:58.761Z,76.48
2022-12-03T07:05:26.309Z,76.37
2022-12-03T07:07:55.570Z,76.61
2022-12-03T07:10:22.852Z,76.66
2022-12-03T07:12:49.920Z,76.07
2022-12-03T07:15:16.861Z,76.35
2022-12-03T07:17:43.961Z,76.21
2022-12-03T07:20:11.540Z,76.54
2022-12-03T07:22:38.901Z,75.92
2022-12-03T07:25:06.750Z,76.04
2022-12-03T07:27:34.057Z,76.20
2022-12-03T07:30:01.376Z,76.41
2022-12-03T07:32:28.785Z,76.53
2022-12-03T07:34:56.604Z,76.61
2022-12-03T07:37:23.878Z,76.56
2022-12-03T07:39:52.631Z,76.35
2022-12-03T07:42:19.784Z,76.55
2022-12-03T07:44:46.620Z,76.67
2022-12-03T07:47:13.841Z,76.87
2022-12-03T07:49:41.232Z,77.22
2022-12-03T07:52:11.353Z,76.94
2022-12-03T07:54:38.334Z,76.41
2022-12-03T07:57:05.583Z,76.89
2022-12-03T07:59:32.492Z,76.43
2022-12-03T08:01:59.764Z,76.64
2022-12-03T08:04:26.696Z,76.68
2022-12-03T08:06:54.077Z,76.83
2022-12-03T08:09:42.374Z,76.78
2022-12-03T08:12:20.163Z,77.35
2022-12-03T08:14:54.802Z,76.50
2022-12-03T08:17:23.421Z,76.48
2022-12-03T08:19:50.313Z,76.97
2022-12-03T08:22:31.378Z,76.75
2022-12-03T08:25:03.981Z,77.12
2022-12-03T08:27:37.571Z,77.21
2022-12-03T08:30:06.834Z,77.09
2022-12-03T08:32:44.856Z,76.80
2022-12-03T08:35:24.192Z,77.05
2022-12-03T08:38:14.187Z,76.81
2022-12-03T08:40:45.745Z,76.97
2022-12-03T08:43:30.332Z,77.15
2022-12-03T08:46:01.737Z,77.52
2022-12-03T08:48:47.061Z,77.16
2022-12-03T08:51:29.534Z,77.61
2022-12-03T08:54:27.419Z,77.22
2022-12-03T08:56:54.794Z,77.53
2022-12-03T08:59:32.762Z,77.35
2022-12-03T09:02:00.226Z,77.75
2022-12-03T09:04:53.221Z,77.68
2022-12-03T09:07:20.283Z,77.02
2022-12-03T09:09:47.936Z,77.32
2022-12-03T09:12:15.095Z,77.52
2022-12-03T09:14:42.497Z,77.68
2022-12-03T09:17:12.424Z,77.80
2022-12-03T09:19:46.244Z,78.32
2022-12-03T09:22:17.421Z,79.36
2022-12-03T09:24:44.938Z,79.64
2022-12-03T09:28:14.893Z,79.68
2022-12-03T09:30:42.153Z,78.63
2022-12-03T09:33:10.566Z,78.99
2022-12-03T09:35:37.715Z,79.17
2022-12-03T09:38:04.731Z,78.50
2022-12-03T09:40:31.926Z,79.09
2022-12-03T09:42:58.817Z,79.12
2022-12-03T09:45:26.443Z,78.66
2022-12-03T09:47:55.212Z,78.46
2022-12-03T09:50:28.920Z,78.34
2022-12-03T09:53:03.320Z,78.71
2022-12-03T09:55:31.513Z,78.24
2022-12-03T09:57:58.910Z,77.91
2022-12-03T10:00:32.059Z,77.74
2022-12-03T10:03:06.858Z,77.71
2022-12-03T10:05:36.396Z,77.83
2022-12-03T10:08:13.268Z,78.03
2022-12-03T10:10:42.312Z,77.92
2022-12-03T10:13:38.879Z,77.63
2022-12-03T10:16:23.446Z,78.30
2022-12-03T10:19:00.473Z,77.56
2022-12-03T10:21:41.785Z,78.21
2022-12-03T10:24:23.416Z,77.78
2022-12-03T10:26:54.372Z,78.04
2022-12-03T10:29:34.826Z,77.53
2022-12-03T10:32:09.131Z,77.69
2022-12-03T10:34:47.693Z,77.47
2022-12-03T10:37:21.669Z,76.94
2022-12-03T10:40:01.213Z,77.45
2022-12-03T10:42:47.867Z,77.22
2022-12-03T10:45:23.049Z,77.25
2022-12-03T10:48:20.101Z,77.32
2022-12-03T10:51:25.100Z,78.25
2022-12-03T10:53:52.413Z,77.42
2022-12-03T10:56:30.330Z,77.39
2022-12-03T10:58:59.264Z,77.59
2022-12-03T11:01:29.224Z,77.54
2022-12-03T11:04:09.043Z,77.32
2022-12-03T11:07:02.080Z,77.56
2022-12-03T11:09:34.069Z,77.48
2022-12-03T11:12:07.858Z,77.83
2022-12-03T11:15:38.816Z,77.35
2022-12-03T11:18:09.356Z,77.43
2022-12-03T11:20:47.997Z,77.86
2022-12-03T11:23:46.529Z,77.18
2022-12-03T11:26:27.299Z,77.56
2022-12-03T11:28:57.466Z,77.84
2022-12-03T11:31:58.974Z,77.42
2022-12-03T11:34:40.831Z,77.57
2022-12-03T11:37:13.969Z,77.57
2022-12-03T11:39:51.105Z,77.85
2022-12-03T11:42:47.013Z,77.64
2022-12-03T11:46:19.931Z,77.18
2022-12-03T11:48:50.502Z,77.62
2022-12-03T11:51:23.423Z,77.42
2022-12-03T11:54:31.042Z,77.28
2022-12-03T11:56:58.825Z,77.55
2022-12-03T11:59:27.717Z,77.53
2022-12-03T12:01:54.767Z,78.19
2022-12-03T12:04:43.943Z,77.49
2022-12-03T12:07:13.332Z,77.75
2022-12-03T12:10:07.819Z,77.53
2022-12-03T12:12:54.310Z,77.57
2022-12-03T12:15:48.107Z,77.73
2022-12-03T12:18:43.338Z,77.50
2022-12-03T12:21:51.162Z,78.12
2022-12-03T12:24:55.525Z,77.46
2022-12-03T12:27:31.803Z,77.84
2022-12-03T12:30:22.433Z,77.56
2022-12-03T12:32:54.491Z,77.57
2022-12-03T12:35:32.997Z,77.72
2022-12-03T12:38:14.838Z,77.42
2022-12-03T12:40:51.802Z,77.22
2022-12-03T12:43:31.885Z,77.10
2022-12-03T12:49:10.544Z,80.71
2022-12-03T12:51:47.833Z,80.94
2022-12-03T12:54:22.887Z,81.23
2022-12-03T12:56:50.553Z,80.71
2022-12-03T12:59:27.361Z,80.63
2022-12-03T13:02:46.239Z,79.91
2022-12-03T13:05:14.373Z,80.14
2022-12-03T13:07:44.330Z,80.44
2022-12-03T13:10:40.773Z,79.97
2022-12-03T13:13:46.328Z,79.09
2022-12-03T13:16:25.710Z,78.24
2022-12-03T13:18:59.887Z,78.69
2022-12-03T13:21:47.265Z,77.87
2022-12-03T13:24:52.629Z,78.29
2022-12-03T13:27:19.846Z,77.47
2022-12-03T13:29:59.177Z,77.98
2022-12-03T13:32:39.340Z,77.94
2022-12-03T13:35:36.220Z,77.73
2022-12-03T13:38:15.660Z,78.37
2022-12-03T13:40:43.191Z,77.96
2022-12-03T13:43:18.708Z,77.89
2022-12-03T13:45:48.945Z,77.81
2022-12-03T13:48:39.780Z,78.11
2022-12-03T13:51:33.594Z,78.53
2022-12-03T13:54:00.882Z,78.61
2022-12-03T13:56:33.870Z,78.17
2022-12-03T13:59:05.309Z,78.53
2022-12-03T14:01:32.822Z,79.03
2022-12-03T14:04:00.250Z,78.50
2022-12-03T14:06:27.454Z,79.05
2022-12-03T14:08:55.505Z,78.18
2022-12-03T14:11:41.088Z,78.71
2022-12-03T14:14:10.353Z,78.87
2022-12-03T14:16:38.878Z,78.08
2022-12-03T14:19:09.794Z,78.71
2022-12-03T14:21:37.212Z,78.51
2022-12-03T14:24:05.306Z,78.59
2022-12-03T14:26:32.566Z,77.93
2022-12-03T14:29:48.824Z,78.32
2022-12-03T14:32:17.112Z,78.23
2022-12-03T14:34:44.659Z,78.30
2022-12-03T14:37:12.166Z,77.98
2022-12-03T14:39:41.281Z,78.41
2022-12-03T14:42:18.727Z,78.10
2022-12-03T14:44:52.765Z,79.00
2022-12-03T14:47:29.888Z,78.36
2022-12-03T14:49:58.033Z,78.58
2022-12-03T14:52:25.594Z,79.00
2022-12-03T14:54:53.372Z,78.32
2022-12-03T14:57:21.220Z,78.82
2022-12-03T14:59:48.977Z,79.06
2022-12-03T15:02:22.921Z,78.85
2022-12-03T15:04:52.773Z,78.65
2022-12-03T15:07:19.649Z,78.95
2022-12-03T15:09:47.048Z,78.85
2022-12-03T15:12:16.554Z,79.08
2022-12-03T15:14:44.146Z,79.22
2022-12-03T15:17:11.278Z,79.21
2022-12-03T15:19:38.544Z,78.74
2022-12-03T15:22:05.687Z,79.50
2022-12-03T15:24:33.156Z,78.89
2022-12-03T15:27:00.027Z,79.54
2022-12-03T15:29:27.354Z,79.65
2022-12-03T15:31:55.116Z,79.79
2022-12-03T15:34:23.249Z,79.58
2022-12-03T15:36:51.204Z,79.43
2022-12-03T15:39:18.653Z,78.82
2022-12-03T15:41:45.545Z,79.68
2022-12-03T15:44:12.598Z,79.58
2022-12-03T15:46:39.554Z,79.46
2022-12-03T15:49:07.307Z,79.76
2022-12-03T15:51:34.402Z,79.26
2022-12-03T15:54:01.947Z,79.20
2022-12-03T15:56:29.307Z,79.97
2022-12-03T15:58:56.844Z,80.13
2022-12-03T16:01:25.144Z,79.76
2022-12-03T16:04:14.871Z,79.66
2022-12-03T16:06:44.737Z,79.02
2022-12-03T16:09:11.922Z,79.27
2022-12-03T16:11:41.964Z,79.32
2022-12-03T16:14:09.052Z,79.67
2022-12-03T16:17:21.922Z,79.56
2022-12-03T16:19:50.231Z,79.39
2022-12-03T16:22:18.201Z,79.05
2022-12-03T16:24:45.873Z,79.37
2022-12-03T16:27:13.354Z,79.39
2022-12-03T16:29:40.932Z,79.79
2022-12-03T16:32:08.398Z,79.76
2022-12-03T16:34:35.927Z,79.69
2022-12-03T16:37:04.797Z,79.66
2022-12-03T16:39:32.305Z,79.16
2022-12-03T16:41:59.236Z,79.75
2022-12-03T16:44:50.511Z,79.22
2022-12-03T16:47:17.774Z,79.62
2022-12-03T16:49:45.542Z,79.57
2022-12-03T16:52:12.855Z,79.11
2022-12-03T16:54:40.331Z,78.92
2022-12-03T16:57:10.150Z,78.90
2022-12-03T16:59:37.452Z,79.14
2022-12-03T17:02:04.494Z,79.69
2022-12-03T17:04:31.835Z,79.67
2022-12-03T17:06:59.175Z,79.70
2022-12-03T17:09:26.519Z,79.50
2022-12-03T17:11:53.482Z,79.40
2022-12-03T17:14:21.476Z,79.55
2022-12-03T17:16:48.682Z,79.94
2022-12-03T17:19:16.472Z,79.55
2022-12-03T17:21:43.477Z,79.33
2022-12-03T17:24:10.612Z,79.73
2022-12-03T17:26:37.714Z,79.58
2022-12-03T17:29:05.500Z,80.05
2022-12-03T17:31:36.943Z,78.91
2022-12-03T17:34:10.234Z,79.68
2022-12-03T17:36:40.620Z,79.55
2022-12-03T17:39:07.723Z,79.62
2022-12-03T17:41:35.011Z,79.84
2022-12-03T17:44:09.731Z,79.75
2022-12-03T17:46:42.295Z,79.87
2022-12-03T17:49:10.074Z,79.91
2022-12-03T17:51:40.149Z,79.35
2022-12-03T17:54:07.524Z,79.76
2022-12-03T17:56:37.107Z,79.64
2022-12-03T17:59:06.412Z,79.71
2022-12-03T18:01:35.672Z,79.59
2022-12-03T18:04:07.127Z,79.98
2022-12-03T18:06:34.493Z,80.61
2022-12-03T18:09:02.672Z,80.17
2022-12-03T18:11:29.727Z,80.24
2022-12-03T18:13:57.461Z,80.12
2022-12-03T18:16:24.951Z,79.87
2022-12-03T18:18:56.526Z,79.73
2022-12-03T18:21:31.517Z,80.00
2022-12-03T18:24:00.246Z,80.16
2022-12-03T18:26:27.286Z,79.84
2022-12-03T18:28:54.876Z,80.60
2022-12-03T18:31:22.788Z,80.32
2022-12-03T18:33:50.150Z,80.24
2022-12-03T18:36:33.807Z,80.43
2022-12-03T18:39:09.374Z,79.93
2022-12-03T18:41:38.845Z,80.43
2022-12-03T18:44:12.141Z,80.32
2022-12-03T18:46:53.338Z,80.63
2022-12-03T18:49:25.190Z,80.02
2022-12-03T18:51:59.020Z,80.27
2022-12-03T18:54:28.979Z,80.87
2022-12-03T18:56:57.375Z,80.21
2022-12-03T18:59:26.161Z,81.20
2022-12-03T19:01:53.936Z,80.21
2022-12-03T19:04:21.296Z,80.41
2022-12-03T19:06:48.482Z,80.76
2022-12-03T19:09:51.566Z,80.93
2022-12-03T19:12:20.354Z,80.38
2022-12-03T19:15:03.356Z,80.53
2022-12-03T19:18:11.185Z,81.05
2022-12-03T19:20:58.092Z,81.28
2022-12-03T19:23:25.098Z,80.92
2022-12-03T19:26:07.335Z,80.80
2022-12-03T19:28:35.728Z,80.64
2022-12-03T19:31:23.183Z,81.10
2022-12-03T19:34:38.129Z,80.99
2022-12-03T19:37:07.308Z,80.94
2022-12-03T19:39:34.850Z,81.19
2022-12-03T19:42:45.332Z,80.99
2022-12-03T19:45:14.554Z,80.73
2022-12-03T19:47:46.322Z,80.41
2022-12-03T19:50:22.573Z,80.22
2022-12-03T19:52:54.502Z,80.75
2022-12-03T19:55:24.417Z,80.54
2022-12-03T19:57:51.591Z,80.93
2022-12-03T20:00:21.807Z,79.95
2022-12-03T20:03:48.424Z,80.40
2022-12-03T20:06:26.314Z,80.40
2022-12-03T20:12:09.715Z,81.16
2022-12-03T20:14:38.202Z,80.56
2022-12-03T20:17:05.732Z,80.80
2022-12-03T20:19:33.427Z,81.20
2022-12-03T20:22:05.184Z,81.18
2022-12-03T20:24:33.325Z,81.33
2022-12-03T20:27:03.725Z,80.51
2022-12-03T20:29:32.750Z,81.12
2022-12-03T20:32:04.402Z,80.94
2022-12-03T20:34:31.766Z,80.76
2022-12-03T20:36:58.594Z,81.28
2022-12-03T20:39:26.814Z,80.87
2022-12-03T20:41:54.026Z,80.72
2022-12-03T20:44:21.270Z,80.47
2022-12-03T20:46:48.784Z,81.11
2022-12-03T20:49:16.296Z,81.05
2022-12-03T20:51:43.632Z,80.74
2022-12-03T20:54:11.707Z,81.13
2022-12-03T20:56:42.194Z,80.55
2022-12-03T20:59:18.614Z,80.93
2022-12-03T21:01:46.192Z,80.86
2022-12-03T21:04:13.999Z,81.01
2022-12-03T21:06:42.446Z,81.43
2022-12-03T21:09:59.876Z,81.54
2022-12-03T21:12:27.604Z,81.30
2022-12-03T21:14:54.772Z,80.82
2022-12-03T21:17:21.758Z,81.32
2022-12-03T21:19:49.189Z,81.38
2022-12-03T21:22:16.103Z,81.80
2022-12-03T21:24:43.891Z,81.72
2022-12-03T21:27:14.513Z,81.45
2022-12-03T21:29:49.828Z,81.52
2022-12-03T21:32:17.949Z,81.24
2022-12-03T21:34:45.848Z,81.75
2022-12-03T21:37:12.989Z,81.63
2022-12-03T21:39:40.664Z,81.55
2022-12-03T21:42:33.968Z,81.78
2022-12-03T21:44:56.433Z,81.90
2022-12-03T21:47:24.022Z,82.28
2022-12-03T21:49:52.212Z,81.80
2022-12-03T21:52:19.890Z,82.03
2022-12-03T21:54:47.471Z,81.94
2022-12-03T21:57:14.821Z,82.12
2022-12-03T21:59:42.600Z,81.99
2022-12-03T22:02:11.558Z,81.82
2022-12-03T22:04:40.181Z,81.75
2022-12-03T22:07:07.623Z,81.53
2022-12-03T22:09:37.915Z,81.62
2022-12-03T22:12:05.348Z,81.67
2022-12-03T22:14:32.561Z,81.91
2022-12-03T22:16:59.454Z,82.09
2022-12-03T22:19:27.256Z,82.30
2022-12-03T22:21:54.150Z,82.40
2022-12-03T22:24:21.585Z,81.80
2022-12-03T22:26:48.404Z,81.98
2022-12-03T22:29:15.767Z,82.28
2022-12-03T22:31:42.918Z,82.38
2022-12-03T22:34:10.673Z,82.39
2022-12-03T22:36:38.018Z,82.52
2022-12-03T22:39:05.647Z,81.97
2022-12-03T22:41:32.896Z,81.93
2022-12-03T22:44:00.695Z,81.86
2022-12-03T22:46:28.148Z,82.22
2022-12-03T22:48:55.671Z,81.71
2022-12-03T22:51:25.950Z,82.48
2022-12-03T22:53:59.426Z,82.00
2022-12-03T22:56:29.830Z,82.53
2022-12-03T22:58:58.031Z,82.03
2022-12-03T23:01:33.621Z,82.33
2022-12-03T23:04:02.640Z,82.68
2022-12-03T23:06:31.907Z,81.85
2022-12-03T23:09:00.181Z,82.21
2022-12-03T23:11:28.592Z,82.87
2022-12-03T23:13:55.721Z,82.52
2022-12-03T23:16:28.138Z,82.45
2022-12-03T23:19:01.950Z,82.02
2022-12-03T23:21:34.263Z,82.64
2022-12-03T23:24:05.174Z,82.41
2022-12-03T23:26:37.816Z,82.43
2022-12-03T23:29:06.690Z,82.47
2022-12-03T23:31:34.594Z,82.72
2022-12-03T23:34:02.700Z,82.29
2022-12-03T23:36:32.940Z,82.52
2022-12-03T23:39:00.732Z,81.95
2022-12-03T23:41:28.714Z,82.67
2022-12-03T23:43:56.863Z,82.67
2022-12-03T23:46:27.956Z,82.87
2022-12-03T23:48:58.524Z,82.60
2022-12-03T23:51:25.949Z,82.44
2022-12-03T23:53:56.282Z,82.49
2022-12-03T23:56:29.626Z,82.08
2022-12-03T23:58:58.766Z,82.58
